createdAt,value
2016-08-31T00:00:07.106Z,87.76
2016-08-31T00:01:20.097Z,87.29
2016-08-31T00:02:33.079Z,87.19
2016-08-31T00:03:46.053Z,87.09
2016-08-31T00:04:59.040Z,87.09
2016-08-31T00:06:12.257Z,87.76
2016-08-31T00:07:25.239Z,87.95
2016-08-31T00:08:38.221Z,87.48
2016-08-31T00:09:51.206Z,86.96
2016-08-31T00:11:04.193Z,86.96
2016-08-31T00:12:17.174Z,87.62
2016-08-31T00:13:30.159Z,88.1
2016-08-31T00:14:43.153Z,87.82
2016-08-31T00:15:56.133Z,86.96
2016-08-31T00:17:09.114Z,87.82
2016-08-31T00:18:22.094Z,87.72
2016-08-31T00:19:35.081Z,87.53
2016-08-31T00:20:48.059Z,87.34
2016-08-31T00:22:01.049Z,87.05
2016-08-31T00:23:14.040Z,88.1
2016-08-31T00:24:27.020Z,87.24
2016-08-31T00:25:40.022Z,87.24
2016-08-31T00:26:53.014Z,86.96
2016-08-31T00:28:06.012Z,88.87
2016-08-31T00:29:18.989Z,89.73
2016-08-31T00:30:31.968Z,89.44
2016-08-31T00:31:45.157Z,88.2
2016-08-31T00:32:58.337Z,87.24
2016-08-31T00:34:11.310Z,87.53
2016-08-31T00:35:24.486Z,90.2
2016-08-31T00:36:37.475Z,92.59
2016-08-31T00:37:50.456Z,91.25
2016-08-31T00:39:03.429Z,88.87
2016-08-31T00:40:16.418Z,88.96
2016-08-31T00:41:29.569Z,89.97
2016-08-31T00:42:42.759Z,89.34
2016-08-31T00:43:55.733Z,88.39
2016-08-31T00:45:08.915Z,88.73
2016-08-31T00:46:22.289Z,87.82
2016-08-31T00:47:35.315Z,87.1
2016-08-31T00:48:48.294Z,86.67
2016-08-31T00:50:01.486Z,85.67
2016-08-31T00:51:14.476Z,86.53
2016-08-31T00:52:27.457Z,87.1
2016-08-31T00:53:40.635Z,86.76
2016-08-31T00:54:53.624Z,86.53
2016-08-31T00:56:06.605Z,86.43
2016-08-31T00:57:19.590Z,86.63
2016-08-31T00:58:32.779Z,87.2
2016-08-31T00:59:45.751Z,86.86
2016-08-31T01:00:58.730Z,87.24
2016-08-31T01:02:11.921Z,86.05
2016-08-31T01:03:24.903Z,85.81
2016-08-31T01:04:37.890Z,86
2016-08-31T01:05:50.863Z,86.63
2016-08-31T01:07:03.841Z,86.34
2016-08-31T01:08:16.827Z,86.43
2016-08-31T01:09:29.811Z,86.05
2016-08-31T01:10:42.781Z,86.05
2016-08-31T01:11:55.965Z,85.86
2016-08-31T01:13:08.947Z,87.96
2016-08-31T01:14:21.929Z,87.68
2016-08-31T01:15:35.120Z,88.25
2016-08-31T01:16:48.097Z,91.02
2016-08-31T01:18:01.295Z,95.98
2016-08-31T01:19:14.279Z,95.51
2016-08-31T01:20:27.253Z,97.99
2016-08-31T01:21:40.235Z,98.94
2016-08-31T01:22:53.406Z,98.18
2016-08-31T01:24:06.389Z,97.37
2016-08-31T01:25:19.382Z,96.51
2016-08-31T01:26:32.370Z,96.8
2016-08-31T01:27:45.558Z,96.8
2016-08-31T01:28:58.538Z,96.7
2016-08-31T01:30:11.521Z,96.22
2016-08-31T01:31:24.506Z,95.08
2016-08-31T01:32:37.683Z,96.7
2016-08-31T01:33:50.670Z,96.22
2016-08-31T01:35:03.938Z,96.22
2016-08-31T01:36:16.910Z,95.94
2016-08-31T01:37:29.897Z,93.26
2016-08-31T01:38:42.874Z,91.07
2016-08-31T01:39:56.049Z,90.4
2016-08-31T01:41:09.045Z,88.78
2016-08-31T01:42:22.033Z,88.68
2016-08-31T01:43:35.012Z,88.3
2016-08-31T01:44:47.996Z,87.54
2016-08-31T01:46:00.979Z,87.82
2016-08-31T01:47:13.967Z,88.4
2016-08-31T01:48:26.990Z,90.11
2016-08-31T01:49:39.960Z,93.84
2016-08-31T01:50:53.145Z,92.41
2016-08-31T01:52:06.523Z,90.31
2016-08-31T01:53:19.499Z,92.12
2016-08-31T01:54:32.470Z,89.54
2016-08-31T01:55:45.450Z,91.26
2016-08-31T01:56:58.631Z,90.4
2016-08-31T01:58:11.614Z,90.02
2016-08-31T01:59:24.796Z,91.45
2016-08-31T02:00:37.779Z,90.88
2016-08-31T02:01:50.758Z,89.25
2016-08-31T02:03:03.743Z,89.16
2016-08-31T02:04:16.718Z,88.68
2016-08-31T02:05:29.699Z,90.21
2016-08-31T02:06:42.678Z,90.11
2016-08-31T02:07:55.656Z,89.64
2016-08-31T02:09:08.836Z,90.78
2016-08-31T02:10:21.821Z,94.89
2016-08-31T02:11:34.810Z,96.22
2016-08-31T02:12:47.998Z,95.94
2016-08-31T02:14:00.989Z,93.84
2016-08-31T02:15:13.972Z,93.12
2016-08-31T02:16:26.960Z,91.41
2016-08-31T02:17:40.140Z,92.46
2016-08-31T02:18:53.316Z,93.31
2016-08-31T02:20:06.303Z,95.7
2016-08-31T02:21:19.296Z,96.37
2016-08-31T02:22:32.292Z,96.17
2016-08-31T02:23:45.272Z,94.56
2016-08-31T02:24:58.252Z,93.22
2016-08-31T02:26:11.238Z,92.93
2016-08-31T02:27:24.236Z,93.31
2016-08-31T02:28:37.218Z,91.88
2016-08-31T02:29:50.210Z,91.02
2016-08-31T02:31:03.198Z,91.21
2016-08-31T02:32:16.181Z,92.55
2016-08-31T02:33:29.162Z,94.07
2016-08-31T02:34:42.150Z,92.83
2016-08-31T02:35:55.126Z,91.98
2016-08-31T02:37:08.111Z,91.41
2016-08-31T02:38:21.288Z,91.02
2016-08-31T02:39:34.270Z,92.26
2016-08-31T02:40:47.246Z,91.41
2016-08-31T02:42:00.235Z,90.17
2016-08-31T02:43:13.411Z,90.73
2016-08-31T02:44:26.387Z,89.97
2016-08-31T02:45:39.572Z,89.97
2016-08-31T02:46:52.757Z,90.07
2016-08-31T02:48:05.742Z,90.73
2016-08-31T02:49:18.768Z,90.55
2016-08-31T02:50:31.747Z,90.26
2016-08-31T02:51:44.725Z,90.26
2016-08-31T02:52:57.698Z,90.36
2016-08-31T02:54:10.681Z,90.17
2016-08-31T02:55:23.653Z,91.02
2016-08-31T02:56:36.630Z,91.31
2016-08-31T02:57:49.606Z,91.02
2016-08-31T02:59:02.793Z,90.07
2016-08-31T03:00:15.769Z,90.07
2016-08-31T03:01:28.748Z,90.26
2016-08-31T03:02:41.727Z,90.07
2016-08-31T03:03:54.701Z,91.6
2016-08-31T03:05:07.877Z,93.74
2016-08-31T03:06:20.898Z,93.36
2016-08-31T03:07:33.872Z,91.98
2016-08-31T03:08:47.042Z,92.5
2016-08-31T03:10:00.022Z,90.69
2016-08-31T03:11:13.001Z,89.54
2016-08-31T03:12:26.190Z,90.22
2016-08-31T03:13:39.164Z,89.93
2016-08-31T03:14:52.160Z,89.45
2016-08-31T03:16:05.130Z,90.12
2016-08-31T03:17:18.107Z,90.22
2016-08-31T03:18:31.094Z,90.22
2016-08-31T03:19:44.071Z,90.41
2016-08-31T03:20:57.055Z,89.17
2016-08-31T03:22:10.040Z,88.69
2016-08-31T03:23:23.218Z,88.98
2016-08-31T03:24:36.207Z,88.98
2016-08-31T03:25:49.188Z,88.98
2016-08-31T03:27:02.166Z,88.31
2016-08-31T03:28:15.144Z,88.31
2016-08-31T03:29:28.134Z,88.4
2016-08-31T03:30:41.116Z,88.88
2016-08-31T03:31:54.100Z,88.5
2016-08-31T03:33:07.078Z,88.78
2016-08-31T03:34:20.058Z,87.93
2016-08-31T03:35:33.043Z,87.74
2016-08-31T03:36:46.035Z,87.93
2016-08-31T03:37:59.013Z,88.21
2016-08-31T03:39:11.994Z,88.31
2016-08-31T03:40:24.986Z,89.26
2016-08-31T03:41:37.971Z,90.03
2016-08-31T03:42:50.957Z,91.55
2016-08-31T03:44:03.930Z,91.93
2016-08-31T03:45:16.904Z,91.27
2016-08-31T03:46:29.882Z,90.12
2016-08-31T03:47:42.876Z,89.07
2016-08-31T03:48:56.049Z,88.4
2016-08-31T03:50:09.081Z,88.02
2016-08-31T03:51:22.059Z,87.83
2016-08-31T03:52:35.036Z,88.98
2016-08-31T03:53:48.013Z,89.36
2016-08-31T03:55:00.992Z,89.83
2016-08-31T03:56:13.967Z,89.64
2016-08-31T03:57:26.950Z,92.12
2016-08-31T03:58:39.932Z,92.79
2016-08-31T03:59:53.117Z,91.36
2016-08-31T04:01:06.104Z,91.27
2016-08-31T04:02:19.097Z,90.88
2016-08-31T04:03:32.076Z,90.12
2016-08-31T04:04:45.063Z,90.12
2016-08-31T04:05:58.240Z,89.74
2016-08-31T04:07:11.216Z,90.03
2016-08-31T04:08:24.391Z,89.26
2016-08-31T04:09:37.399Z,89.07
2016-08-31T04:10:50.382Z,89.54
2016-08-31T04:12:03.358Z,93.17
2016-08-31T04:13:16.730Z,93.79
2016-08-31T04:14:29.707Z,94.74
2016-08-31T04:15:42.709Z,95.79
2016-08-31T04:16:55.691Z,94.84
2016-08-31T04:18:08.680Z,96.46
2016-08-31T04:19:21.668Z,94.84
2016-08-31T04:20:34.645Z,93.51
2016-08-31T04:21:47.644Z,92.55
2016-08-31T04:23:01.030Z,90.84
2016-08-31T04:24:14.213Z,94.08
2016-08-31T04:25:27.183Z,93.41
2016-08-31T04:26:40.172Z,94.46
2016-08-31T04:27:53.156Z,91.98
2016-08-31T04:29:06.135Z,92.08
2016-08-31T04:30:19.109Z,92.17
2016-08-31T04:31:32.290Z,91.6
2016-08-31T04:32:45.267Z,93.41
2016-08-31T04:33:58.248Z,96.36
2016-08-31T04:35:11.232Z,97.89
2016-08-31T04:36:24.211Z,98.08
2016-08-31T04:37:37.214Z,97.7
2016-08-31T04:38:50.189Z,98.75
2016-08-31T04:40:03.166Z,99.13
2016-08-31T04:41:16.151Z,96.56
2016-08-31T04:42:29.129Z,97.8
2016-08-31T04:43:42.103Z,99.99
2016-08-31T04:44:55.074Z,99.99
2016-08-31T04:46:08.070Z,98.85
2016-08-31T04:47:21.466Z,97.99
2016-08-31T04:48:34.446Z,94.93
2016-08-31T04:49:47.440Z,94.93
2016-08-31T04:51:00.479Z,92.65
2016-08-31T04:52:13.456Z,91.98
2016-08-31T04:53:26.434Z,91.22
2016-08-31T04:54:39.423Z,89.98
2016-08-31T04:55:52.601Z,89.89
2016-08-31T04:57:05.581Z,90.36
2016-08-31T04:58:18.554Z,90.36
2016-08-31T04:59:31.738Z,91.88
2016-08-31T05:00:44.918Z,92.08
2016-08-31T05:01:57.902Z,92.46
2016-08-31T05:03:10.880Z,93.03
2016-08-31T05:04:23.863Z,98.27
2016-08-31T05:05:36.841Z,98.56
2016-08-31T05:06:49.812Z,98.08
2016-08-31T05:08:02.782Z,97.89
2016-08-31T05:09:15.751Z,99.41
2016-08-31T05:10:28.728Z,99.7
2016-08-31T05:11:41.708Z,97.89
2016-08-31T05:12:54.687Z,98.18
2016-08-31T05:14:07.671Z,98.08
2016-08-31T05:15:20.653Z,98.27
2016-08-31T05:16:33.644Z,98.65
2016-08-31T05:17:46.614Z,97.51
2016-08-31T05:18:59.586Z,96.46
2016-08-31T05:20:12.568Z,97.51
2016-08-31T05:21:25.740Z,99.22
2016-08-31T05:22:38.762Z,99.99
2016-08-31T05:23:51.740Z,99.99
2016-08-31T05:25:04.917Z,99.99
2016-08-31T05:26:17.898Z,99.99
2016-08-31T05:27:30.873Z,99.13
2016-08-31T05:28:44.054Z,97.89
2016-08-31T05:29:57.034Z,97.89
2016-08-31T05:31:10.011Z,97.41
2016-08-31T05:32:23.007Z,96.46
2016-08-31T05:33:35.988Z,93.98
2016-08-31T05:34:49.371Z,92.65
2016-08-31T05:36:02.356Z,92.17
2016-08-31T05:37:15.341Z,89.98
2016-08-31T05:38:28.312Z,89.5
2016-08-31T05:39:41.299Z,88.93
2016-08-31T05:40:54.282Z,89.03
2016-08-31T05:42:07.265Z,92.88
2016-08-31T05:43:20.456Z,93.93
2016-08-31T05:44:33.431Z,94.03
2016-08-31T05:45:46.409Z,93.46
2016-08-31T05:46:59.392Z,93.46
2016-08-31T05:48:12.371Z,93.46
2016-08-31T05:49:25.549Z,92.98
2016-08-31T05:50:38.518Z,92.98
2016-08-31T05:51:51.550Z,94.32
2016-08-31T05:53:04.542Z,93.46
2016-08-31T05:54:17.515Z,94.22
2016-08-31T05:55:30.500Z,94.98
2016-08-31T05:56:43.476Z,94.79
2016-08-31T05:57:56.464Z,95.65
2016-08-31T05:59:09.438Z,94.98
2016-08-31T06:00:22.623Z,97.94
2016-08-31T06:01:35.600Z,99.46
2016-08-31T06:02:48.592Z,99.66
2016-08-31T06:04:01.566Z,97.66
2016-08-31T06:05:14.555Z,96.32
2016-08-31T06:06:27.537Z,94.07
2016-08-31T06:07:40.518Z,94.07
2016-08-31T06:08:53.500Z,95.08
2016-08-31T06:10:06.477Z,93.31
2016-08-31T06:11:19.754Z,91.31
2016-08-31T06:12:32.730Z,90.45
2016-08-31T06:13:45.711Z,94.93
2016-08-31T06:14:58.709Z,97.51
2016-08-31T06:16:11.696Z,96.66
2016-08-31T06:17:24.675Z,94.93
2016-08-31T06:18:37.651Z,95.51
2016-08-31T06:19:51.901Z,92.07
2016-08-31T06:21:04.891Z,90.55
2016-08-31T06:22:17.880Z,90.36
2016-08-31T06:23:30.874Z,94.27
2016-08-31T06:24:43.856Z,93.79
2016-08-31T06:25:57.037Z,94.27
2016-08-31T06:27:10.225Z,93.7
2016-08-31T06:28:23.210Z,94.03
2016-08-31T06:29:36.182Z,97.75
2016-08-31T06:30:49.367Z,97.94
2016-08-31T06:32:02.362Z,97.56
2016-08-31T06:33:15.349Z,99.47
2016-08-31T06:34:28.331Z,98.23
2016-08-31T06:35:41.309Z,96.8
2016-08-31T06:36:54.294Z,99.99
2016-08-31T06:38:07.311Z,99.99
2016-08-31T06:39:20.291Z,97.23
2016-08-31T06:40:33.272Z,99.04
2016-08-31T06:41:46.264Z,99.99
2016-08-31T06:42:59.252Z,97.71
2016-08-31T06:44:12.437Z,91.53
2016-08-31T06:45:25.500Z,88.66
2016-08-31T06:46:38.489Z,86.98
2016-08-31T06:47:51.474Z,82.18
2016-08-31T06:49:04.469Z,80.49
2016-08-31T06:50:17.671Z,79.19
2016-08-31T06:51:30.667Z,77.01
2016-08-31T06:52:43.905Z,76.48
2016-08-31T06:53:57.208Z,73.28
2016-08-31T06:55:10.196Z,73.38
2016-08-31T06:56:23.379Z,73.03
2016-08-31T06:57:36.367Z,70.86
2016-08-31T06:58:49.364Z,71.28
2016-08-31T07:00:02.351Z,70.6
2016-08-31T07:01:16.773Z,71.6
2016-08-31T07:02:29.774Z,69.03
2016-08-31T07:03:43.171Z,65.98
2016-08-31T07:04:56.167Z,64.72
2016-08-31T07:06:09.217Z,65.05
2016-08-31T07:07:22.213Z,65.82
2016-08-31T07:08:35.232Z,64.5
2016-08-31T07:09:48.230Z,62.95
2016-08-31T07:11:01.245Z,63.08
2016-08-31T07:12:14.243Z,61.18
2016-08-31T07:13:27.246Z,61.02
2016-08-31T07:14:40.261Z,60.53
2016-08-31T07:15:53.264Z,60.63
2016-08-31T07:17:06.274Z,60.75
2016-08-31T07:18:19.277Z,60.75
2016-08-31T07:19:32.275Z,60.27
2016-08-31T07:20:45.289Z,59.72
2016-08-31T07:21:58.307Z,58.27
2016-08-31T07:23:11.317Z,58.2
2016-08-31T07:24:24.317Z,58.2
2016-08-31T07:25:37.544Z,57.75
2016-08-31T07:26:50.542Z,57.26
2016-08-31T07:28:03.744Z,55.42
2016-08-31T07:29:16.749Z,56.2
2016-08-31T07:30:29.748Z,56.9
2016-08-31T07:31:42.958Z,55.54
2016-08-31T07:32:55.969Z,55.26
2016-08-31T07:34:08.991Z,54.86
2016-08-31T07:35:21.993Z,56.03
2016-08-31T07:36:35.031Z,54.99
2016-08-31T07:37:48.036Z,53.53
2016-08-31T07:39:01.040Z,53.95
2016-08-31T07:40:14.047Z,53.78
2016-08-31T07:41:27.252Z,53.03
2016-08-31T07:42:40.452Z,52.06
2016-08-31T07:43:53.447Z,52.25
2016-08-31T07:45:06.449Z,50.92
2016-08-31T07:46:19.550Z,51.99
2016-08-31T07:47:32.559Z,52.28
2016-08-31T07:48:45.556Z,52.19
2016-08-31T07:49:58.551Z,52.09
2016-08-31T07:51:11.861Z,52.09
2016-08-31T07:52:25.065Z,53.16
2016-08-31T07:53:38.126Z,51.89
2016-08-31T07:54:51.134Z,49.87
2016-08-31T07:56:04.177Z,51.62
2016-08-31T07:57:17.188Z,50.75
2016-08-31T07:58:30.187Z,50.65
2016-08-31T07:59:43.470Z,50.07
2016-08-31T08:00:56.481Z,49.61
2016-08-31T08:02:09.488Z,50.68
2016-08-31T08:03:22.797Z,49.83
2016-08-31T08:04:35.951Z,49.15
2016-08-31T08:05:49.230Z,48.97
2016-08-31T08:07:02.544Z,47.2
2016-08-31T08:08:16.900Z,49.15
2016-08-31T08:09:29.951Z,47.69
2016-08-31T08:10:42.955Z,48.75
2016-08-31T08:11:56.169Z,46.44
2016-08-31T08:13:09.177Z,44.98
2016-08-31T08:14:22.452Z,45.08
2016-08-31T08:15:35.470Z,45.08
2016-08-31T08:16:48.473Z,45.86
2016-08-31T08:18:01.484Z,46.37
2016-08-31T08:19:14.507Z,45.98
2016-08-31T08:20:27.518Z,45.9
2016-08-31T08:21:40.523Z,46.3
2016-08-31T08:22:53.529Z,45.44
2016-08-31T08:24:06.538Z,45.15
2016-08-31T08:25:19.690Z,44.44
2016-08-31T08:26:32.703Z,45.12
2016-08-31T08:27:45.782Z,45.81
2016-08-31T08:28:58.798Z,44.54
2016-08-31T08:30:11.806Z,45.64
2016-08-31T08:31:24.855Z,46.41
2016-08-31T08:32:37.856Z,45.44
2016-08-31T08:33:50.867Z,45.07
2016-08-31T08:35:03.874Z,44.68
2016-08-31T08:36:17.036Z,43.99
2016-08-31T08:37:30.036Z,45.36
2016-08-31T08:38:43.049Z,44.21
2016-08-31T08:39:56.273Z,44.41
2016-08-31T08:41:09.282Z,44.51
2016-08-31T08:42:22.291Z,44.12
2016-08-31T08:43:35.303Z,42.46
2016-08-31T08:44:48.324Z,44.8
2016-08-31T08:46:01.737Z,42.87
2016-08-31T08:47:14.836Z,42.09
2016-08-31T08:48:27.846Z,42.6
2016-08-31T08:49:40.847Z,43.38
2016-08-31T08:50:53.909Z,42.4
2016-08-31T08:52:06.917Z,42.42
2016-08-31T08:53:19.927Z,41.15
2016-08-31T08:54:32.978Z,40.86
2016-08-31T08:55:45.985Z,43.1
2016-08-31T08:56:59.198Z,43.69
2016-08-31T08:58:12.407Z,43.2
2016-08-31T08:59:25.422Z,40.5
2016-08-31T09:00:38.428Z,40.5
2016-08-31T09:01:51.436Z,40.47
2016-08-31T09:03:04.445Z,41.25
2016-08-31T09:04:17.659Z,42.11
2016-08-31T09:05:30.866Z,44.04
2016-08-31T09:06:43.881Z,44.92
2016-08-31T09:07:56.899Z,43.96
2016-08-31T09:09:10.343Z,42.32
2016-08-31T09:10:23.347Z,42.13
2016-08-31T09:11:36.361Z,39.88
2016-08-31T09:12:49.573Z,39.7
2016-08-31T09:14:02.780Z,41.46
2016-08-31T09:15:15.784Z,41.86
2016-08-31T09:16:28.806Z,39.35
2016-08-31T09:17:41.815Z,38.67
2016-08-31T09:18:54.824Z,39.25
2016-08-31T09:20:07.869Z,39.54
2016-08-31T09:21:21.079Z,38.67
2016-08-31T09:22:34.087Z,39.47
2016-08-31T09:23:47.089Z,39.66
2016-08-31T09:25:00.301Z,40.84
2016-08-31T09:26:13.317Z,38.8
2016-08-31T09:27:26.327Z,39.88
2016-08-31T09:28:39.335Z,38.43
2016-08-31T09:29:52.350Z,39.09
2016-08-31T09:31:05.373Z,38.9
2016-08-31T09:32:18.599Z,40.25
2016-08-31T09:33:31.615Z,40.14
2016-08-31T09:34:44.626Z,39.54
2016-08-31T09:35:57.634Z,39.17
2016-08-31T09:37:10.650Z,38.76
2016-08-31T09:38:23.661Z,41.29
2016-08-31T09:39:36.664Z,42.46
2016-08-31T09:40:49.701Z,41.52
2016-08-31T09:42:02.923Z,42.97
2016-08-31T09:43:15.950Z,42.5
2016-08-31T09:44:28.979Z,42.11
2016-08-31T09:45:41.976Z,41.41
2016-08-31T09:46:54.988Z,39.66
2016-08-31T09:48:07.995Z,39.66
2016-08-31T09:49:21.007Z,39.54
2016-08-31T09:50:34.022Z,38.59
2016-08-31T09:51:47.236Z,39.37
2016-08-31T09:53:00.293Z,37.61
2016-08-31T09:54:13.324Z,37.82
2016-08-31T09:55:26.390Z,39.88
2016-08-31T09:56:39.394Z,37.25
2016-08-31T09:57:52.413Z,40.09
2016-08-31T09:59:05.418Z,37.07
2016-08-31T10:00:18.555Z,36.57
2016-08-31T10:01:31.622Z,37.74
2016-08-31T10:02:44.641Z,36.84
2016-08-31T10:03:57.654Z,37.31
2016-08-31T10:05:10.751Z,41.23
2016-08-31T10:06:23.967Z,38.68
2016-08-31T10:07:36.982Z,39.56
2016-08-31T10:08:49.999Z,39.59
2016-08-31T10:10:03.238Z,39.19
2016-08-31T10:11:16.245Z,37.71
2016-08-31T10:12:29.253Z,38.59
2016-08-31T10:13:42.269Z,39.47
2016-08-31T10:14:55.278Z,40.16
2016-08-31T10:16:08.307Z,40.92
2016-08-31T10:17:21.321Z,42.76
2016-08-31T10:18:34.337Z,40.29
2016-08-31T10:19:47.343Z,41.39
2016-08-31T10:21:00.352Z,40.41
2016-08-31T10:22:13.368Z,41.27
2016-08-31T10:23:26.578Z,42.05
2016-08-31T10:24:39.798Z,42.54
2016-08-31T10:25:52.800Z,41.39
2016-08-31T10:27:05.808Z,42.56
2016-08-31T10:28:18.819Z,42.25
2016-08-31T10:29:32.021Z,41.29
2016-08-31T10:30:45.132Z,40.53
2016-08-31T10:31:58.144Z,39.66
2016-08-31T10:33:11.156Z,38.88
2016-08-31T10:34:24.163Z,37.41
2016-08-31T10:35:37.213Z,37.81
2016-08-31T10:36:50.752Z,39.86
2016-08-31T10:38:03.983Z,39.86
2016-08-31T10:39:16.989Z,41.42
2016-08-31T10:40:29.989Z,38.59
2016-08-31T10:41:43.002Z,39.37
2016-08-31T10:42:56.022Z,38.8
2016-08-31T10:44:09.033Z,41.15
2016-08-31T10:45:22.253Z,37.81
2016-08-31T10:46:35.366Z,38.76
2016-08-31T10:47:48.771Z,39.33
2016-08-31T10:49:02.179Z,40.63
2016-08-31T10:50:15.485Z,40.23
2016-08-31T10:51:28.498Z,41.31
2016-08-31T10:52:41.500Z,39.56
2016-08-31T10:53:54.507Z,38.98
2016-08-31T10:55:07.590Z,40.92
2016-08-31T10:56:20.903Z,38.78
2016-08-31T10:57:33.903Z,37.73
2016-08-31T10:58:46.923Z,36.94
2016-08-31T10:59:59.940Z,36.45
2016-08-31T11:01:12.951Z,39.29
2016-08-31T11:02:25.952Z,37.82
2016-08-31T11:03:38.956Z,38.23
2016-08-31T11:04:51.963Z,38.23
2016-08-31T11:06:04.979Z,39
2016-08-31T11:07:18.053Z,37.43
2016-08-31T11:08:31.061Z,37.13
2016-08-31T11:09:44.088Z,40.39
2016-08-31T11:10:57.290Z,37.25
2016-08-31T11:12:10.503Z,38.45
2016-08-31T11:13:23.505Z,38.46
2016-08-31T11:14:36.737Z,37.88
2016-08-31T11:15:49.744Z,38.45
2016-08-31T11:17:02.964Z,39.61
2016-08-31T11:18:15.971Z,38.84
2016-08-31T11:19:28.977Z,38.06
2016-08-31T11:20:41.985Z,40.01
2016-08-31T11:21:54.991Z,37.07
2016-08-31T11:23:08.200Z,38.84
2016-08-31T11:24:21.213Z,36.3
2016-08-31T11:25:34.208Z,38.56
2016-08-31T11:26:47.213Z,38.46
2016-08-31T11:28:00.423Z,37.4
2016-08-31T11:29:13.434Z,38.85
2016-08-31T11:30:26.438Z,39.23
2016-08-31T11:31:39.446Z,37.88
2016-08-31T11:32:52.462Z,37.96
2016-08-31T11:34:05.471Z,38.07
2016-08-31T11:35:18.484Z,37.98
2016-08-31T11:36:31.763Z,39.33
2016-08-31T11:37:44.977Z,38.74
2016-08-31T11:38:57.982Z,38.64
2016-08-31T11:40:10.984Z,40.29
2016-08-31T11:41:24.191Z,39.51
2016-08-31T11:42:37.220Z,39.01
2016-08-31T11:43:50.430Z,38.51
2016-08-31T11:45:03.466Z,39.56
2016-08-31T11:46:16.477Z,40.25
2016-08-31T11:47:29.484Z,38.68
2016-08-31T11:48:42.487Z,39.17
2016-08-31T11:49:55.502Z,40.16
2016-08-31T11:51:08.757Z,40.25
2016-08-31T11:52:21.768Z,38.67
2016-08-31T11:53:34.766Z,37.59
2016-08-31T11:54:47.973Z,38.59
2016-08-31T11:56:01.174Z,39.86
2016-08-31T11:57:14.633Z,40.45
2016-08-31T11:58:27.839Z,39.96
2016-08-31T11:59:40.848Z,41.33
2016-08-31T12:00:53.869Z,40.82
2016-08-31T12:02:06.874Z,40.63
2016-08-31T12:03:19.892Z,40.92
2016-08-31T12:04:32.897Z,40.8
2016-08-31T12:05:45.901Z,41
2016-08-31T12:06:59.107Z,39.84
2016-08-31T12:08:12.133Z,39.94
2016-08-31T12:09:25.151Z,39.45
2016-08-31T12:10:38.164Z,38.37
2016-08-31T12:11:51.159Z,38.29
2016-08-31T12:13:04.366Z,40.82
2016-08-31T12:14:17.371Z,42.58
2016-08-31T12:15:30.370Z,40.92
2016-08-31T12:16:43.593Z,40.03
2016-08-31T12:17:56.602Z,40.35
2016-08-31T12:19:09.957Z,41.62
2016-08-31T12:20:24.446Z,41.42
2016-08-31T12:21:37.468Z,39.37
2016-08-31T12:22:50.463Z,38.59
2016-08-31T12:24:03.469Z,41.62
2016-08-31T12:25:16.477Z,39.64
2016-08-31T12:26:29.483Z,41.6
2016-08-31T12:27:42.492Z,40.82
2016-08-31T12:28:55.512Z,41.58
2016-08-31T12:30:08.530Z,41.7
2016-08-31T12:31:21.547Z,41.21
2016-08-31T12:32:34.550Z,40.43
2016-08-31T12:33:47.564Z,43.46
2016-08-31T12:35:07.442Z,42.27
2016-08-31T12:36:20.439Z,42.46
2016-08-31T12:37:33.452Z,40.09
2016-08-31T12:38:46.469Z,42.15
2016-08-31T12:39:59.696Z,44.2
2016-08-31T12:41:12.705Z,43.23
2016-08-31T12:42:25.713Z,42.54
2016-08-31T12:43:38.713Z,41.25
2016-08-31T12:44:51.915Z,41.44
2016-08-31T12:46:04.946Z,41.33
2016-08-31T12:47:17.953Z,45.72
2016-08-31T12:48:30.980Z,42.69
2016-08-31T12:49:43.979Z,41.13
2016-08-31T12:50:56.977Z,41.62
2016-08-31T12:52:09.993Z,43.08
2016-08-31T12:53:23.308Z,43.77
2016-08-31T12:54:36.372Z,43.48
2016-08-31T12:56:48.734Z,44.04
2016-08-31T12:58:01.822Z,44.12
2016-08-31T12:59:14.826Z,46.26
2016-08-31T13:00:28.301Z,46.85
2016-08-31T13:01:41.506Z,48.22
2016-08-31T13:02:54.511Z,46.36
2016-08-31T13:04:07.549Z,46.95
2016-08-31T13:05:20.557Z,45.56
2016-08-31T13:06:33.557Z,44.58
2016-08-31T13:07:46.576Z,47.02
2016-08-31T13:08:59.784Z,46.41
2016-08-31T13:10:12.981Z,48.17
2016-08-31T13:11:25.978Z,46.02
2016-08-31T13:12:38.981Z,45.64
2016-08-31T13:13:52.181Z,45.15
2016-08-31T13:15:05.176Z,51.07
2016-08-31T13:16:18.420Z,48.83
2016-08-31T13:17:31.421Z,45.42
2016-08-31T13:18:44.621Z,50.19
2016-08-31T13:19:57.643Z,51.26
2016-08-31T13:21:10.652Z,47.17
2016-08-31T13:22:23.854Z,47.75
2016-08-31T13:23:36.849Z,48.44
2016-08-31T13:24:49.846Z,48.14
2016-08-31T13:26:02.864Z,51.65
2016-08-31T13:27:15.873Z,48.73
2016-08-31T13:28:28.871Z,49.99
2016-08-31T13:29:42.084Z,50.38
2016-08-31T13:30:55.081Z,50.38
2016-08-31T13:32:08.095Z,47.85
2016-08-31T13:33:21.097Z,47.56
2016-08-31T13:34:34.098Z,46.3
2016-08-31T13:35:47.296Z,47.53
2016-08-31T13:37:00.285Z,47.15
2016-08-31T13:38:13.293Z,47.15
2016-08-31T13:39:26.288Z,48.61
2016-08-31T13:40:39.291Z,51.99
2016-08-31T13:41:52.296Z,51.51
2016-08-31T13:43:05.318Z,50.14
2016-08-31T13:44:18.320Z,50.43
2016-08-31T13:45:31.592Z,52.67
2016-08-31T13:46:44.596Z,49.19
2016-08-31T13:47:57.804Z,54.26
2016-08-31T13:49:10.793Z,52.02
2016-08-31T13:50:24.199Z,54.36
2016-08-31T13:51:37.212Z,51.04
2016-08-31T13:52:50.233Z,47.63
2016-08-31T13:54:03.228Z,48.22
2016-08-31T13:55:16.259Z,48.39
2016-08-31T13:56:29.987Z,53.85
2016-08-31T13:57:43.178Z,53.48
2016-08-31T13:58:56.219Z,54.94
2016-08-31T14:00:09.234Z,50.56
2016-08-31T14:01:22.437Z,49.29
2016-08-31T14:02:35.431Z,49.37
2016-08-31T14:03:48.427Z,50.04
2016-08-31T14:05:01.435Z,48.68
2016-08-31T14:06:14.477Z,51.41
2016-08-31T14:07:27.492Z,52.06
2016-08-31T14:08:40.690Z,52.26
2016-08-31T14:09:53.887Z,51.67
2016-08-31T14:11:07.014Z,53.62
2016-08-31T14:12:20.008Z,53.72
2016-08-31T14:13:33.037Z,51.19
2016-08-31T14:14:46.268Z,49.85
2016-08-31T14:15:59.670Z,47.13
2016-08-31T14:17:12.670Z,47.71
2016-08-31T14:18:25.873Z,50.92
2016-08-31T14:19:38.866Z,50.7
2016-08-31T14:20:51.867Z,52.67
2016-08-31T14:22:04.862Z,48.56
2016-08-31T14:23:17.861Z,47.52
2016-08-31T14:24:30.855Z,48.85
2016-08-31T14:25:43.846Z,53.75
2016-08-31T14:26:56.844Z,49.76
2016-08-31T14:28:09.842Z,48.97
2016-08-31T14:29:22.851Z,53.45
2016-08-31T14:30:35.852Z,51.99
2016-08-31T14:31:49.053Z,47.52
2016-08-31T14:33:02.055Z,47.52
2016-08-31T14:34:15.051Z,48.49
2016-08-31T14:35:28.554Z,48.46
2016-08-31T14:36:41.557Z,51.67
2016-08-31T14:37:54.558Z,50.12
2016-08-31T14:39:07.605Z,50.12
2016-08-31T14:40:20.597Z,51.97
2016-08-31T14:41:33.663Z,48.27
2016-08-31T14:42:46.663Z,50.21
2016-08-31T14:43:59.661Z,49.15
2016-08-31T14:45:12.870Z,48.36
2016-08-31T14:46:26.079Z,48.44
2016-08-31T14:47:39.077Z,50.48
2016-08-31T14:48:52.086Z,52.14
2016-08-31T14:50:05.222Z,53.69
2016-08-31T14:51:18.366Z,57
2016-08-31T14:52:31.362Z,53.11
2016-08-31T14:53:44.581Z,54.66
2016-08-31T14:54:57.600Z,54.28
2016-08-31T14:56:10.617Z,52.62
2016-08-31T14:57:23.813Z,51.17
2016-08-31T14:58:36.802Z,53.08
2016-08-31T14:59:50.045Z,51.92
2016-08-31T15:01:03.050Z,48.8
2016-08-31T15:02:16.044Z,49
2016-08-31T15:03:29.038Z,51.43
2016-08-31T15:04:42.044Z,54.13
2016-08-31T15:05:55.044Z,53.06
2016-08-31T15:07:08.037Z,52.47
2016-08-31T15:08:21.049Z,51.79
2016-08-31T15:09:34.251Z,55.58
2016-08-31T15:10:47.253Z,52.96
2016-08-31T15:12:00.240Z,56.46
2016-08-31T15:13:13.233Z,55.65
2016-08-31T15:14:26.227Z,56.26
2016-08-31T15:15:39.252Z,52.57
2016-08-31T15:16:52.245Z,50.53
2016-08-31T15:18:05.248Z,48.66
2016-08-31T15:19:18.243Z,50.8
2016-08-31T15:20:31.230Z,50.7
2016-08-31T15:21:44.431Z,51.57
2016-08-31T15:22:57.430Z,52.55
2016-08-31T15:24:10.431Z,52.84
2016-08-31T15:25:23.564Z,54.97
2016-08-31T15:26:36.671Z,55.46
2016-08-31T15:27:49.667Z,58.95
2016-08-31T15:29:02.677Z,51.77
2016-08-31T15:30:15.690Z,50.7
2016-08-31T15:31:29.017Z,53.03
2016-08-31T15:32:42.012Z,54.29
2016-08-31T15:33:55.017Z,53.69
2016-08-31T15:35:09.454Z,54.27
2016-08-31T15:36:22.501Z,53.78
2016-08-31T15:37:35.662Z,54.94
2016-08-31T15:38:48.653Z,53.61
2016-08-31T15:40:01.642Z,50.21
2016-08-31T15:41:14.665Z,52.72
2016-08-31T15:42:28.060Z,51.35
2016-08-31T15:43:41.057Z,51.84
2016-08-31T15:44:54.255Z,53.37